Volcan De Teneguia — ECLA — position and weather

sailwx.info

Track history (hours):
 
Tides and Currents Weather Stations Pressure Air Temp Water Temp Dewpoint Dewpoint Depression Visibility Wind Speed Wind Dir Waves Ship Positions

Volcan De Teneguia

Last reported at 2015-Jul-01 07:28 UTC. Time now 2015-Jul-01 16:52 UTC.
Position N 35°33' W 007°48'.

Length 145 m; draft 5.7 m.

Type: Cargo ship. MMSI: 225317000.

Date/timePositionNaut miles runAvg speedWind from/ knotsBaromVisibWave heightAir tempDewpointWater temp
2015-Jul-01 07:28N 35°33' W 007°48'1213.2
2015-Jul-01 06:32N 35°42' W 007°38'1313.2
2015-Jul-01 05:33N 35°51' W 007°28'1513.4
2015-Jul-01 04:27N 36°03' W 007°16'1213.0
2015-Jul-01 03:33N 36°12' W 007°07'1313.2
2015-Jul-01 02:33N 36°22' W 006°56'1313.1
2015-Jul-01 01:33N 36°32' W 006°45'1313.3
2015-Jul-01 00:33N 36°42' W 006°34'1111.4
2015-Jun-30 23:33N 36°47' W 006°22'8 7.8
2015-Jun-30 22:30N 36°55' W 006°17'23 0.6
2015-Jun-29 04:21N 37°15' W 006°04'9411.9
2015-Jun-28 20:27N 36°04' W 007°21'1414.8
2015-Jun-28 19:29N 35°54' W 007°33'1414.9
2015-Jun-28 18:33N 35°44' W 007°46'1514.8
2015-Jun-28 17:33N 35°33' W 007°58'1514.7
2015-Jun-28 16:33N 35°23' W 008°11'1414.6
2015-Jun-28 15:33N 35°12' W 008°23'1514.7
2015-Jun-28 14:33N 35°02' W 008°35'1514.6
2015-Jun-28 13:33N 34°51' W 008°48'1514.7
2015-Jun-28 12:33N 34°41' W 009°00'1514.9
2015-Jun-28 11:34N 34°30' W 009°13'1514.6
2015-Jun-28 10:34N 34°20' W 009°26'1814.6
2015-Jun-28 09:19N 34°07' W 009°41'7414.4
2015-Jun-28 04:08N 33°13' W 010°43'25314.1
2015-Jun-27 10:11N 30°12' W 014°11'914.6
2015-Jun-27 09:33N 30°06' W 014°18'1414.4
2015-Jun-27 08:33N 29°55' W 014°30'1414.3
2015-Jun-27 07:33N 29°45' W 014°42'1914.4
2015-Jun-27 06:15N 29°32' W 014°57'1214.4
2015-Jun-27 05:26N 29°23' W 015°06'1314.4
2015-Jun-27 04:33N 29°14' W 015°16'1614.3
2015-Jun-27 03:27N 29°03' W 015°29'1314.3
2015-Jun-27 02:34N 28°54' W 015°39'1414.2
2015-Jun-27 01:34N 28°43' W 015°50'1413.7
2015-Jun-27 00:33N 28°33' W 016°01'12 5.6
2015-Jun-26 22:25N 28°29' W 016°14'0 0.0
2015-Jun-26 18:28N 28°29' W 016°14'0 0.0
2015-Jun-26 17:17N 28°29' W 016°14'1 1.9
2015-Jun-26 16:33N 28°28' W 016°13'1313.4
2015-Jun-26 15:33N 28°23' W 015°59'1414.4
2015-Jun-26 14:33N 28°19' W 015°43'1414.3
2015-Jun-26 13:33N 28°14' W 015°28'6 5.8
2015-Jun-26 12:33N 28°09' W 015°25'0 0.3
2015-Jun-26 11:30N 28°09' W 015°25'0 0.0
2015-Jun-26 10:33N 28°09' W 015°25'0 0.0
2015-Jun-26 09:33N 28°09' W 015°25'0 0.0
2015-Jun-26 08:33N 28°09' W 015°25'0 0.0
2015-Jun-26 07:33N 28°09' W 015°25'0 0.0
2015-Jun-26 06:33N 28°09' W 015°25'2 2.4
2015-Jun-26 05:33N 28°07' W 015°23'1312.6
2015-Jun-26 04:33N 28°16' W 015°13'1313.4
2015-Jun-26 03:33N 28°26' W 015°03'1313.5
2015-Jun-26 02:33N 28°37' W 014°54'1413.3
2015-Jun-26 01:28N 28°48' W 014°43'1212.8
2015-Jun-26 00:33N 28°57' W 014°34'1912.9
2015-Jun-25 23:04N 29°11' W 014°20'  
2015-Jun-22 00:10N 36°13' W 007°09'913.1
2015-Jun-21 23:30N 36°07' W 007°17'5213.1
2015-Jun-21 19:33N 35°30' W 008°01'1313.1
2015-Jun-21 18:33N 35°21' W 008°13'1312.9
2015-Jun-21 17:33N 35°12' W 008°24'1313.0
2015-Jun-21 16:33N 35°02' W 008°35'5313.0
2015-Jun-21 12:27N 34°24' W 009°20'1413.4
2015-Jun-21 11:25N 34°14' W 009°32'  
Track history (hours):
 
Tides and Currents Weather Stations Pressure Air Temp Water Temp Dewpoint Dewpoint Depression Visibility Wind Speed Wind Dir Waves Ship Positions

Volcan De Teneguia

Last reported at 2015-Jul-01 07:28 UTC. Time now 2015-Jul-01 16:52 UTC.
Position N 35°33' W 007°48'.

Length 145 m; draft 5.7 m.

Type: Cargo ship. MMSI: 225317000.

Date/timePositionNaut miles runAvg speedWind from/ knotsBaromVisibWave heightAir tempDewpointWater temp
2015-Jul-01 07:28N 35°33' W 007°48'1213.2
2015-Jul-01 06:32N 35°42' W 007°38'1313.2
2015-Jul-01 05:33N 35°51' W 007°28'1513.4
2015-Jul-01 04:27N 36°03' W 007°16'1213.0
2015-Jul-01 03:33N 36°12' W 007°07'1313.2
2015-Jul-01 02:33N 36°22' W 006°56'1313.1
2015-Jul-01 01:33N 36°32' W 006°45'1313.3
2015-Jul-01 00:33N 36°42' W 006°34'1111.4
2015-Jun-30 23:33N 36°47' W 006°22'8 7.8
2015-Jun-30 22:30N 36°55' W 006°17'23 0.6
2015-Jun-29 04:21N 37°15' W 006°04'9411.9
2015-Jun-28 20:27N 36°04' W 007°21'1414.8
2015-Jun-28 19:29N 35°54' W 007°33'1414.9
2015-Jun-28 18:33N 35°44' W 007°46'1514.8
2015-Jun-28 17:33N 35°33' W 007°58'1514.7
2015-Jun-28 16:33N 35°23' W 008°11'1414.6
2015-Jun-28 15:33N 35°12' W 008°23'1514.7
2015-Jun-28 14:33N 35°02' W 008°35'1514.6
2015-Jun-28 13:33N 34°51' W 008°48'1514.7
2015-Jun-28 12:33N 34°41' W 009°00'1514.9
2015-Jun-28 11:34N 34°30' W 009°13'1514.6
2015-Jun-28 10:34N 34°20' W 009°26'1814.6
2015-Jun-28 09:19N 34°07' W 009°41'7414.4
2015-Jun-28 04:08N 33°13' W 010°43'25314.1
2015-Jun-27 10:11N 30°12' W 014°11'914.6
2015-Jun-27 09:33N 30°06' W 014°18'1414.4
2015-Jun-27 08:33N 29°55' W 014°30'1414.3
2015-Jun-27 07:33N 29°45' W 014°42'1914.4
2015-Jun-27 06:15N 29°32' W 014°57'1214.4
2015-Jun-27 05:26N 29°23' W 015°06'1314.4
2015-Jun-27 04:33N 29°14' W 015°16'1614.3
2015-Jun-27 03:27N 29°03' W 015°29'1314.3
2015-Jun-27 02:34N 28°54' W 015°39'1414.2
2015-Jun-27 01:34N 28°43' W 015°50'1413.7
2015-Jun-27 00:33N 28°33' W 016°01'12 5.6
2015-Jun-26 22:25N 28°29' W 016°14'0 0.0
2015-Jun-26 18:28N 28°29' W 016°14'0 0.0
2015-Jun-26 17:17N 28°29' W 016°14'1 1.9
2015-Jun-26 16:33N 28°28' W 016°13'1313.4
2015-Jun-26 15:33N 28°23' W 015°59'1414.4
2015-Jun-26 14:33N 28°19' W 015°43'1414.3
2015-Jun-26 13:33N 28°14' W 015°28'6 5.8
2015-Jun-26 12:33N 28°09' W 015°25'0 0.3
2015-Jun-26 11:30N 28°09' W 015°25'0 0.0
2015-Jun-26 10:33N 28°09' W 015°25'0 0.0
2015-Jun-26 09:33N 28°09' W 015°25'0 0.0
2015-Jun-26 08:33N 28°09' W 015°25'0 0.0
2015-Jun-26 07:33N 28°09' W 015°25'0 0.0
2015-Jun-26 06:33N 28°09' W 015°25'2 2.4
2015-Jun-26 05:33N 28°07' W 015°23'1312.6
2015-Jun-26 04:33N 28°16' W 015°13'1313.4
2015-Jun-26 03:33N 28°26' W 015°03'1313.5
2015-Jun-26 02:33N 28°37' W 014°54'1413.3
2015-Jun-26 01:28N 28°48' W 014°43'1212.8
2015-Jun-26 00:33N 28°57' W 014°34'1912.9
2015-Jun-25 23:04N 29°11' W 014°20'  
2015-Jun-22 00:10N 36°13' W 007°09'913.1
2015-Jun-21 23:30N 36°07' W 007°17'5213.1
2015-Jun-21 19:33N 35°30' W 008°01'1313.1
2015-Jun-21 18:33N 35°21' W 008°13'1312.9
2015-Jun-21 17:33N 35°12' W 008°24'1313.0
2015-Jun-21 16:33N 35°02' W 008°35'5313.0
2015-Jun-21 12:27N 34°24' W 009°20'1413.4
2015-Jun-21 11:25N 34°14' W 009°32'  

Dump ship's entire track history